sensor_id;sensor_type;location;lat;lon;timestamp;temperature;humidity
9437;DHT22;4757;59.334;18.034;2023-11-18T00:01:57;1.10;99.90
9437;DHT22;4757;59.334;18.034;2023-11-18T00:04:24;1.10;99.90
9437;DHT22;4757;59.334;18.034;2023-11-18T00:06:51;1.20;99.90
9437;DHT22;4757;59.334;18.034;2023-11-18T00:09:21;1.20;99.90
9437;DHT22;4757;59.334;18.034;2023-11-18T00:11:51;1.20;99.90
9437;DHT22;4757;59.334;18.034;2023-11-18T00:14:18;1.20;99.90
9437;DHT22;4757;59.334;18.034;2023-11-18T00:16:45;1.20;99.90
9437;DHT22;4757;59.334;18.034;2023-11-18T00:19:13;1.10;99.90
9437;DHT22;4757;59.334;18.034;2023-11-18T00:21:40;1.20;99.90
9437;DHT22;4757;59.334;18.034;2023-11-18T00:24:07;1.20;99.90
9437;DHT22;4757;59.334;18.034;2023-11-18T00:26:34;1.30;99.90
9437;DHT22;4757;59.334;18.034;2023-11-18T00:29:01;1.40;99.90
9437;DHT22;4757;59.334;18.034;2023-11-18T00:31:29;1.40;99.90
9437;DHT22;4757;59.334;18.034;2023-11-18T00:33:56;1.30;99.90
9437;DHT22;4757;59.334;18.034;2023-11-18T00:36:23;1.30;99.90
9437;DHT22;4757;59.334;18.034;2023-11-18T00:38:50;1.50;99.90
9437;DHT22;4757;59.334;18.034;2023-11-18T00:41:17;1.50;99.90
9437;DHT22;4757;59.334;18.034;2023-11-18T00:43:44;1.60;99.90
9437;DHT22;4757;59.334;18.034;2023-11-18T00:46:12;1.50;99.90
9437;DHT22;4757;59.334;18.034;2023-11-18T00:48:39;1.30;99.90
9437;DHT22;4757;59.334;18.034;2023-11-18T00:51:06;1.20;99.90
9437;DHT22;4757;59.334;18.034;2023-11-18T00:53:34;1.20;99.90
9437;DHT22;4757;59.334;18.034;2023-11-18T00:56:01;1.20;99.90
9437;DHT22;4757;59.334;18.034;2023-11-18T00:58:29;1.20;99.90
9437;DHT22;4757;59.334;18.034;2023-11-18T01:00:56;1.40;99.90
9437;DHT22;4757;59.334;18.034;2023-11-18T01:03:23;1.60;99.90
9437;DHT22;4757;59.334;18.034;2023-11-18T01:05:50;1.30;99.90
9437;DHT22;4757;59.334;18.034;2023-11-18T01:08:18;1.20;99.90
9437;DHT22;4757;59.334;18.034;2023-11-18T01:10:44;1.20;99.90
9437;DHT22;4757;59.334;18.034;2023-11-18T01:13:12;1.50;99.90
9437;DHT22;4757;59.334;18.034;2023-11-18T01:15:39;1.50;99.90
9437;DHT22;4757;59.334;18.034;2023-11-18T01:18:06;1.50;99.90
9437;DHT22;4757;59.334;18.034;2023-11-18T01:20:33;1.30;99.90
9437;DHT22;4757;59.334;18.034;2023-11-18T01:23:00;1.30;99.90
9437;DHT22;4757;59.334;18.034;2023-11-18T01:25:27;1.10;99.90
9437;DHT22;4757;59.334;18.034;2023-11-18T01:27:54;1.10;99.90
9437;DHT22;4757;59.334;18.034;2023-11-18T01:30:22;1.10;99.90
9437;DHT22;4757;59.334;18.034;2023-11-18T01:32:50;1.10;99.90
9437;DHT22;4757;59.334;18.034;2023-11-18T01:35:18;1.10;99.90
9437;DHT22;4757;59.334;18.034;2023-11-18T01:37:46;1.00;99.90
9437;DHT22;4757;59.334;18.034;2023-11-18T01:40:15;1.10;99.90
9437;DHT22;4757;59.334;18.034;2023-11-18T01:42:43;1.20;99.90
9437;DHT22;4757;59.334;18.034;2023-11-18T01:45:14;1.30;99.90
9437;DHT22;4757;59.334;18.034;2023-11-18T01:47:41;1.40;99.90
9437;DHT22;4757;59.334;18.034;2023-11-18T01:50:10;1.30;99.90
9437;DHT22;4757;59.334;18.034;2023-11-18T01:52:40;1.30;99.90
9437;DHT22;4757;59.334;18.034;2023-11-18T01:55:12;1.30;99.90
9437;DHT22;4757;59.334;18.034;2023-11-18T01:57:40;1.00;99.90
9437;DHT22;4757;59.334;18.034;2023-11-18T02:00:11;1.00;99.90
9437;DHT22;4757;59.334;18.034;2023-11-18T02:02:39;0.90;99.90
9437;DHT22;4757;59.334;18.034;2023-11-18T02:05:07;0.60;99.90
9437;DHT22;4757;59.334;18.034;2023-11-18T02:07:35;0.70;99.90
9437;DHT22;4757;59.334;18.034;2023-11-18T02:10:04;0.70;99.90
9437;DHT22;4757;59.334;18.034;2023-11-18T02:13:03;-0.10;99.90
9437;DHT22;4757;59.334;18.034;2023-11-18T02:15:35;1.00;99.90
9437;DHT22;4757;59.334;18.034;2023-11-18T02:18:06;1.00;99.90
9437;DHT22;4757;59.334;18.034;2023-11-18T02:20:38;1.00;99.90
9437;DHT22;4757;59.334;18.034;2023-11-18T02:23:06;0.90;99.90
9437;DHT22;4757;59.334;18.034;2023-11-18T02:28:05;0.90;99.90
9437;DHT22;4757;59.334;18.034;2023-11-18T02:30:33;0.70;99.90
9437;DHT22;4757;59.334;18.034;2023-11-18T02:33:03;0.50;99.90
9437;DHT22;4757;59.334;18.034;2023-11-18T02:35:38;0.60;99.90
9437;DHT22;4757;59.334;18.034;2023-11-18T02:38:08;0.50;99.90
9437;DHT22;4757;59.334;18.034;2023-11-18T02:40:39;0.40;99.90
9437;DHT22;4757;59.334;18.034;2023-11-18T02:43:11;0.60;99.90
9437;DHT22;4757;59.334;18.034;2023-11-18T02:45:38;0.70;99.90
9437;DHT22;4757;59.334;18.034;2023-11-18T02:48:06;0.70;99.90
9437;DHT22;4757;59.334;18.034;2023-11-18T02:50:34;0.80;99.90
9437;DHT22;4757;59.334;18.034;2023-11-18T02:53:03;0.80;99.90
9437;DHT22;4757;59.334;18.034;2023-11-18T02:55:30;0.80;99.90
9437;DHT22;4757;59.334;18.034;2023-11-18T02:57:57;0.80;99.90
9437;DHT22;4757;59.334;18.034;2023-11-18T03:00:24;0.80;99.90
9437;DHT22;4757;59.334;18.034;2023-11-18T03:02:51;0.50;99.90
9437;DHT22;4757;59.334;18.034;2023-11-18T03:05:20;0.70;99.90
9437;DHT22;4757;59.334;18.034;2023-11-18T03:07:48;0.60;99.90
9437;DHT22;4757;59.334;18.034;2023-11-18T03:10:21;0.60;99.90
9437;DHT22;4757;59.334;18.034;2023-11-18T03:12:50;0.60;99.90
9437;DHT22;4757;59.334;18.034;2023-11-18T03:15:17;0.60;99.90
9437;DHT22;4757;59.334;18.034;2023-11-18T03:17:48;0.50;99.90
9437;DHT22;4757;59.334;18.034;2023-11-18T03:20:22;0.40;99.90
9437;DHT22;4757;59.334;18.034;2023-11-18T03:22:51;0.40;99.90
9437;DHT22;4757;59.334;18.034;2023-11-18T03:25:19;0.40;99.90
9437;DHT22;4757;59.334;18.034;2023-11-18T03:27:48;0.40;99.90
9437;DHT22;4757;59.334;18.034;2023-11-18T03:30:15;0.50;99.90
9437;DHT22;4757;59.334;18.034;2023-11-18T03:32:44;0.50;99.90
9437;DHT22;4757;59.334;18.034;2023-11-18T03:35:12;0.40;99.90
9437;DHT22;4757;59.334;18.034;2023-11-18T03:37:40;0.40;99.90
9437;DHT22;4757;59.334;18.034;2023-11-18T03:40:14;0.40;99.90
9437;DHT22;4757;59.334;18.034;2023-11-18T03:42:42;0.40;99.90
9437;DHT22;4757;59.334;18.034;2023-11-18T03:45:09;0.50;99.90
9437;DHT22;4757;59.334;18.034;2023-11-18T03:47:37;0.60;99.90
9437;DHT22;4757;59.334;18.034;2023-11-18T03:50:05;0.70;99.90
9437;DHT22;4757;59.334;18.034;2023-11-18T03:52:36;0.60;99.90
9437;DHT22;4757;59.334;18.034;2023-11-18T03:55:05;0.50;99.90
9437;DHT22;4757;59.334;18.034;2023-11-18T03:57:32;0.40;99.90
9437;DHT22;4757;59.334;18.034;2023-11-18T03:59:59;0.40;99.90
9437;DHT22;4757;59.334;18.034;2023-11-18T04:02:27;0.50;99.90
9437;DHT22;4757;59.334;18.034;2023-11-18T04:04:56;0.40;99.90
9437;DHT22;4757;59.334;18.034;2023-11-18T04:07:23;0.50;99.90
9437;DHT22;4757;59.334;18.034;2023-11-18T04:09:50;0.30;99.90
9437;DHT22;4757;59.334;18.034;2023-11-18T04:12:17;0.40;99.90
9437;DHT22;4757;59.334;18.034;2023-11-18T04:14:44;0.50;99.90
9437;DHT22;4757;59.334;18.034;2023-11-18T04:17:11;0.40;99.90
9437;DHT22;4757;59.334;18.034;2023-11-18T04:19:38;0.20;99.90
9437;DHT22;4757;59.334;18.034;2023-11-18T04:22:06;0.40;99.90
9437;DHT22;4757;59.334;18.034;2023-11-18T04:24:33;0.30;99.90
9437;DHT22;4757;59.334;18.034;2023-11-18T04:27:02;0.30;99.90
9437;DHT22;4757;59.334;18.034;2023-11-18T04:29:29;0.30;99.90
9437;DHT22;4757;59.334;18.034;2023-11-18T04:31:57;0.30;99.90
9437;DHT22;4757;59.334;18.034;2023-11-18T04:34:24;0.30;99.90
9437;DHT22;4757;59.334;18.034;2023-11-18T04:36:51;0.30;99.90
9437;DHT22;4757;59.334;18.034;2023-11-18T04:39:19;0.30;99.90
9437;DHT22;4757;59.334;18.034;2023-11-18T04:41:47;0.40;99.90
9437;DHT22;4757;59.334;18.034;2023-11-18T04:44:14;0.40;99.90
9437;DHT22;4757;59.334;18.034;2023-11-18T04:46:43;0.50;99.90
9437;DHT22;4757;59.334;18.034;2023-11-18T04:49:12;0.50;99.90
9437;DHT22;4757;59.334;18.034;2023-11-18T04:51:39;0.50;99.90
9437;DHT22;4757;59.334;18.034;2023-11-18T04:54:06;0.40;99.90
9437;DHT22;4757;59.334;18.034;2023-11-18T04:56:35;0.50;99.90
9437;DHT22;4757;59.334;18.034;2023-11-18T04:59:03;0.50;99.90
9437;DHT22;4757;59.334;18.034;2023-11-18T05:01:32;0.50;99.90
9437;DHT22;4757;59.334;18.034;2023-11-18T05:04:00;0.50;99.90
9437;DHT22;4757;59.334;18.034;2023-11-18T05:06:27;0.40;99.90
9437;DHT22;4757;59.334;18.034;2023-11-18T05:08:54;0.40;99.90
9437;DHT22;4757;59.334;18.034;2023-11-18T05:11:21;0.50;99.90
9437;DHT22;4757;59.334;18.034;2023-11-18T05:13:48;0.40;99.90
9437;DHT22;4757;59.334;18.034;2023-11-18T05:16:16;0.50;99.90
9437;DHT22;4757;59.334;18.034;2023-11-18T05:18:43;0.40;99.90
9437;DHT22;4757;59.334;18.034;2023-11-18T05:21:11;0.50;99.90
9437;DHT22;4757;59.334;18.034;2023-11-18T05:23:38;0.40;99.90
9437;DHT22;4757;59.334;18.034;2023-11-18T05:26:05;0.50;99.90
9437;DHT22;4757;59.334;18.034;2023-11-18T05:28:33;0.40;99.90
9437;DHT22;4757;59.334;18.034;2023-11-18T05:31:01;0.50;99.90
9437;DHT22;4757;59.334;18.034;2023-11-18T05:33:35;0.50;99.90
9437;DHT22;4757;59.334;18.034;2023-11-18T05:36:05;0.50;99.90
9437;DHT22;4757;59.334;18.034;2023-11-18T05:38:33;0.50;99.90
9437;DHT22;4757;59.334;18.034;2023-11-18T05:41:02;0.40;99.90
9437;DHT22;4757;59.334;18.034;2023-11-18T05:43:32;0.40;99.90
9437;DHT22;4757;59.334;18.034;2023-11-18T05:46:11;0.40;99.90
9437;DHT22;4757;59.334;18.034;2023-11-18T05:48:45;0.40;99.90
9437;DHT22;4757;59.334;18.034;2023-11-18T05:51:13;0.50;99.90
9437;DHT22;4757;59.334;18.034;2023-11-18T05:53:43;0.40;99.90
9437;DHT22;4757;59.334;18.034;2023-11-18T05:56:13;0.40;99.90
9437;DHT22;4757;59.334;18.034;2023-11-18T05:58:41;0.40;99.90
9437;DHT22;4757;59.334;18.034;2023-11-18T06:01:10;0.40;99.90
9437;DHT22;4757;59.334;18.034;2023-11-18T06:03:38;0.40;99.90
9437;DHT22;4757;59.334;18.034;2023-11-18T06:06:11;0.30;99.90
9437;DHT22;4757;59.334;18.034;2023-11-18T06:08:39;0.30;99.90
9437;DHT22;4757;59.334;18.034;2023-11-18T06:11:10;0.30;99.90
9437;DHT22;4757;59.334;18.034;2023-11-18T06:13:50;0.30;99.90
9437;DHT22;4757;59.334;18.034;2023-11-18T06:16:19;0.30;99.90
9437;DHT22;4757;59.334;18.034;2023-11-18T06:18:55;0.30;99.90
9437;DHT22;4757;59.334;18.034;2023-11-18T06:21:24;0.30;99.90
9437;DHT22;4757;59.334;18.034;2023-11-18T06:23:52;0.30;99.90
9437;DHT22;4757;59.334;18.034;2023-11-18T06:26:22;0.30;99.90
9437;DHT22;4757;59.334;18.034;2023-11-18T06:28:49;0.30;99.90
9437;DHT22;4757;59.334;18.034;2023-11-18T06:31:16;0.30;99.90
9437;DHT22;4757;59.334;18.034;2023-11-18T06:33:45;0.30;99.90
9437;DHT22;4757;59.334;18.034;2023-11-18T06:38:50;0.20;99.90
9437;DHT22;4757;59.334;18.034;2023-11-18T06:41:18;0.20;99.90
9437;DHT22;4757;59.334;18.034;2023-11-18T06:43:46;0.10;99.90
9437;DHT22;4757;59.334;18.034;2023-11-18T06:46:17;-0.10;99.90
9437;DHT22;4757;59.334;18.034;2023-11-18T06:48:54;0.20;99.90
9437;DHT22;4757;59.334;18.034;2023-11-18T06:51:22;0.20;99.90
9437;DHT22;4757;59.334;18.034;2023-11-18T06:53:52;0.00;99.90
9437;DHT22;4757;59.334;18.034;2023-11-18T06:56:25;0.00;99.90
9437;DHT22;4757;59.334;18.034;2023-11-18T06:58:55;0.10;99.90
9437;DHT22;4757;59.334;18.034;2023-11-18T07:01:22;0.10;99.90
9437;DHT22;4757;59.334;18.034;2023-11-18T07:03:49;0.10;99.90
9437;DHT22;4757;59.334;18.034;2023-11-18T07:06:20;0.00;99.90
9437;DHT22;4757;59.334;18.034;2023-11-18T07:08:54;0.20;99.90
9437;DHT22;4757;59.334;18.034;2023-11-18T07:11:22;0.10;99.90
9437;DHT22;4757;59.334;18.034;2023-11-18T07:13:49;0.20;99.90
9437;DHT22;4757;59.334;18.034;2023-11-18T07:16:16;0.00;99.90
9437;DHT22;4757;59.334;18.034;2023-11-18T07:18:43;-0.10;99.90
9437;DHT22;4757;59.334;18.034;2023-11-18T07:21:10;-0.20;99.90
9437;DHT22;4757;59.334;18.034;2023-11-18T07:23:37;-0.40;99.90
9437;DHT22;4757;59.334;18.034;2023-11-18T07:26:04;-0.40;99.90
9437;DHT22;4757;59.334;18.034;2023-11-18T07:28:32;-0.30;99.90
9437;DHT22;4757;59.334;18.034;2023-11-18T07:30:59;-0.10;99.90
9437;DHT22;4757;59.334;18.034;2023-11-18T07:33:26;-0.10;99.90
9437;DHT22;4757;59.334;18.034;2023-11-18T07:35:54;-0.10;99.90
9437;DHT22;4757;59.334;18.034;2023-11-18T07:38:22;-0.30;99.90
9437;DHT22;4757;59.334;18.034;2023-11-18T07:40:50;-0.30;99.90
9437;DHT22;4757;59.334;18.034;2023-11-18T07:43:19;-0.40;99.90
9437;DHT22;4757;59.334;18.034;2023-11-18T07:45:48;-0.50;99.90
9437;DHT22;4757;59.334;18.034;2023-11-18T07:48:20;-0.50;99.90
9437;DHT22;4757;59.334;18.034;2023-11-18T07:50:47;-0.80;99.90
9437;DHT22;4757;59.334;18.034;2023-11-18T07:53:15;-0.70;99.90
9437;DHT22;4757;59.334;18.034;2023-11-18T07:55:53;-0.40;99.90
9437;DHT22;4757;59.334;18.034;2023-11-18T07:58:23;-0.40;99.90
9437;DHT22;4757;59.334;18.034;2023-11-18T08:01:09;-0.40;99.90
9437;DHT22;4757;59.334;18.034;2023-11-18T08:03:37;-0.40;99.90
9437;DHT22;4757;59.334;18.034;2023-11-18T08:06:05;-0.30;99.90
9437;DHT22;4757;59.334;18.034;2023-11-18T08:08:35;-1.20;99.90
9437;DHT22;4757;59.334;18.034;2023-11-18T08:11:05;-0.20;99.90
9437;DHT22;4757;59.334;18.034;2023-11-18T08:13:32;-0.30;99.90
9437;DHT22;4757;59.334;18.034;2023-11-18T08:15:59;-0.20;99.90
9437;DHT22;4757;59.334;18.034;2023-11-18T08:18:28;-0.20;99.90
9437;DHT22;4757;59.334;18.034;2023-11-18T08:20:58;-0.10;99.90
9437;DHT22;4757;59.334;18.034;2023-11-18T08:23:27;-0.50;99.90
9437;DHT22;4757;59.334;18.034;2023-11-18T08:25:58;-0.40;99.90
9437;DHT22;4757;59.334;18.034;2023-11-18T08:28:25;-0.30;99.90
9437;DHT22;4757;59.334;18.034;2023-11-18T08:30:53;-0.40;99.90
9437;DHT22;4757;59.334;18.034;2023-11-18T08:33:20;-0.20;99.90
9437;DHT22;4757;59.334;18.034;2023-11-18T08:35:48;0.00;99.90
9437;DHT22;4757;59.334;18.034;2023-11-18T08:38:15;0.00;99.90
9437;DHT22;4757;59.334;18.034;2023-11-18T08:40:43;-0.10;99.90
9437;DHT22;4757;59.334;18.034;2023-11-18T08:43:11;-0.30;99.90
9437;DHT22;4757;59.334;18.034;2023-11-18T08:45:39;-0.10;99.90
9437;DHT22;4757;59.334;18.034;2023-11-18T08:48:06;-0.40;99.90
9437;DHT22;4757;59.334;18.034;2023-11-18T08:50:37;-0.40;99.90
9437;DHT22;4757;59.334;18.034;2023-11-18T08:53:07;-0.50;99.90
9437;DHT22;4757;59.334;18.034;2023-11-18T08:55:40;-0.60;99.90
9437;DHT22;4757;59.334;18.034;2023-11-18T08:58:18;-0.60;99.90
9437;DHT22;4757;59.334;18.034;2023-11-18T09:00:54;-0.50;99.90
9437;DHT22;4757;59.334;18.034;2023-11-18T09:03:25;-0.50;99.90
9437;DHT22;4757;59.334;18.034;2023-11-18T09:06:03;-0.40;99.90
9437;DHT22;4757;59.334;18.034;2023-11-18T09:08:35;-0.70;99.90
9437;DHT22;4757;59.334;18.034;2023-11-18T09:11:08;-0.80;99.90
9437;DHT22;4757;59.334;18.034;2023-11-18T09:13:37;-0.80;99.90
9437;DHT22;4757;59.334;18.034;2023-11-18T09:16:08;-0.60;99.90
9437;DHT22;4757;59.334;18.034;2023-11-18T09:30:30;1.10;99.90
9437;DHT22;4757;59.334;18.034;2023-11-18T09:33:33;0.00;99.90
9437;DHT22;4757;59.334;18.034;2023-11-18T09:36:24;-0.80;99.90
9437;DHT22;4757;59.334;18.034;2023-11-18T09:39:10;-0.90;99.90
9437;DHT22;4757;59.334;18.034;2023-11-18T09:41:59;-0.90;99.90
9437;DHT22;4757;59.334;18.034;2023-11-18T09:44:30;-1.00;99.90
9437;DHT22;4757;59.334;18.034;2023-11-18T09:47:00;-1.10;99.90
9437;DHT22;4757;59.334;18.034;2023-11-18T09:49:32;-0.90;99.90
9437;DHT22;4757;59.334;18.034;2023-11-18T09:52:06;-0.90;99.90
9437;DHT22;4757;59.334;18.034;2023-11-18T09:59:58;-0.60;99.90
9437;DHT22;4757;59.334;18.034;2023-11-18T10:02:39;-0.90;99.90
9437;DHT22;4757;59.334;18.034;2023-11-18T10:05:09;-0.60;99.90
9437;DHT22;4757;59.334;18.034;2023-11-18T10:07:41;-0.70;99.90
9437;DHT22;4757;59.334;18.034;2023-11-18T10:10:09;-0.80;99.90
9437;DHT22;4757;59.334;18.034;2023-11-18T10:12:43;-0.90;99.90
9437;DHT22;4757;59.334;18.034;2023-11-18T10:15:14;-1.20;99.90
9437;DHT22;4757;59.334;18.034;2023-11-18T10:17:42;-1.10;99.90
9437;DHT22;4757;59.334;18.034;2023-11-18T10:23:07;-0.90;99.90
9437;DHT22;4757;59.334;18.034;2023-11-18T10:25:55;-1.30;99.90
9437;DHT22;4757;59.334;18.034;2023-11-18T10:28:31;-1.10;99.90
9437;DHT22;4757;59.334;18.034;2023-11-18T10:31:05;-1.00;99.90
9437;DHT22;4757;59.334;18.034;2023-11-18T10:33:36;-1.20;99.90
9437;DHT22;4757;59.334;18.034;2023-11-18T10:36:05;-1.30;99.90
9437;DHT22;4757;59.334;18.034;2023-11-18T10:38:40;-1.30;99.90
9437;DHT22;4757;59.334;18.034;2023-11-18T10:41:20;-1.30;99.90
9437;DHT22;4757;59.334;18.034;2023-11-18T10:43:47;-1.40;99.90
9437;DHT22;4757;59.334;18.034;2023-11-18T10:46:17;-1.30;99.90
9437;DHT22;4757;59.334;18.034;2023-11-18T10:48:50;-1.30;99.90
9437;DHT22;4757;59.334;18.034;2023-11-18T10:51:19;-1.30;99.90
9437;DHT22;4757;59.334;18.034;2023-11-18T10:53:50;-1.30;99.90
9437;DHT22;4757;59.334;18.034;2023-11-18T10:56:20;-1.20;99.90
9437;DHT22;4757;59.334;18.034;2023-11-18T10:58:57;-1.30;99.90
9437;DHT22;4757;59.334;18.034;2023-11-18T11:01:32;-1.20;99.90
9437;DHT22;4757;59.334;18.034;2023-11-18T11:04:00;-1.20;99.90
9437;DHT22;4757;59.334;18.034;2023-11-18T11:06:32;-1.20;99.90
9437;DHT22;4757;59.334;18.034;2023-11-18T11:09:04;-1.20;99.90
9437;DHT22;4757;59.334;18.034;2023-11-18T11:11:40;-1.20;99.90
9437;DHT22;4757;59.334;18.034;2023-11-18T11:14:12;-1.40;99.90
9437;DHT22;4757;59.334;18.034;2023-11-18T11:16:54;-1.30;99.90
9437;DHT22;4757;59.334;18.034;2023-11-18T11:19:26;-1.30;99.90
9437;DHT22;4757;59.334;18.034;2023-11-18T11:22:05;-1.50;99.90
9437;DHT22;4757;59.334;18.034;2023-11-18T11:25:08;-1.30;99.90
9437;DHT22;4757;59.334;18.034;2023-11-18T11:30:22;-1.20;99.90
9437;DHT22;4757;59.334;18.034;2023-11-18T11:32:53;-1.20;99.90
9437;DHT22;4757;59.334;18.034;2023-11-18T11:35:30;-1.20;99.90
9437;DHT22;4757;59.334;18.034;2023-11-18T11:37:59;-1.20;99.90
9437;DHT22;4757;59.334;18.034;2023-11-18T11:40:37;-1.10;99.90
9437;DHT22;4757;59.334;18.034;2023-11-18T11:43:06;-1.20;99.90
9437;DHT22;4757;59.334;18.034;2023-11-18T11:45:37;-1.10;99.90
9437;DHT22;4757;59.334;18.034;2023-11-18T11:48:07;-0.80;99.90
9437;DHT22;4757;59.334;18.034;2023-11-18T11:53:34;-1.10;99.90
9437;DHT22;4757;59.334;18.034;2023-11-18T11:56:06;-1.10;99.90
9437;DHT22;4757;59.334;18.034;2023-11-18T11:58:35;-1.30;99.90
9437;DHT22;4757;59.334;18.034;2023-11-18T12:01:27;-1.20;99.90
9437;DHT22;4757;59.334;18.034;2023-11-18T12:04:08;-1.40;99.90
9437;DHT22;4757;59.334;18.034;2023-11-18T12:06:44;-1.20;99.90
9437;DHT22;4757;59.334;18.034;2023-11-18T12:09:14;-1.30;99.90
9437;DHT22;4757;59.334;18.034;2023-11-18T12:11:48;-1.30;99.90
9437;DHT22;4757;59.334;18.034;2023-11-18T12:14:17;-1.40;99.90
9437;DHT22;4757;59.334;18.034;2023-11-18T12:17:07;-1.40;99.90
9437;DHT22;4757;59.334;18.034;2023-11-18T12:19:40;-1.40;99.90
9437;DHT22;4757;59.334;18.034;2023-11-18T12:22:19;-1.40;99.90
9437;DHT22;4757;59.334;18.034;2023-11-18T12:33:05;-1.20;99.90
9437;DHT22;4757;59.334;18.034;2023-11-18T12:41:35;-1.20;99.90
9437;DHT22;4757;59.334;18.034;2023-11-18T12:46:51;-1.10;99.90
9437;DHT22;4757;59.334;18.034;2023-11-18T12:49:23;-1.40;99.90
9437;DHT22;4757;59.334;18.034;2023-11-18T12:51:55;-1.30;99.90
9437;DHT22;4757;59.334;18.034;2023-11-18T12:54:24;-1.30;99.90
9437;DHT22;4757;59.334;18.034;2023-11-18T12:56:57;-1.40;99.90
9437;DHT22;4757;59.334;18.034;2023-11-18T12:59:27;-1.40;99.90
9437;DHT22;4757;59.334;18.034;2023-11-18T13:01:57;-1.30;99.90
9437;DHT22;4757;59.334;18.034;2023-11-18T13:04:25;-1.40;99.90
9437;DHT22;4757;59.334;18.034;2023-11-18T13:06:54;-1.30;99.90
9437;DHT22;4757;59.334;18.034;2023-11-18T13:09:22;-1.40;99.90
9437;DHT22;4757;59.334;18.034;2023-11-18T13:11:59;-1.40;99.90
9437;DHT22;4757;59.334;18.034;2023-11-18T13:14:32;-1.30;99.90
9437;DHT22;4757;59.334;18.034;2023-11-18T13:17:10;-1.30;99.90
9437;DHT22;4757;59.334;18.034;2023-11-18T13:19:40;-1.50;99.90
9437;DHT22;4757;59.334;18.034;2023-11-18T13:22:14;-1.40;99.90
9437;DHT22;4757;59.334;18.034;2023-11-18T13:24:42;-1.50;99.90
9437;DHT22;4757;59.334;18.034;2023-11-18T13:27:15;-1.60;99.90
9437;DHT22;4757;59.334;18.034;2023-11-18T13:29:49;-1.60;99.90
9437;DHT22;4757;59.334;18.034;2023-11-18T13:32:18;-1.40;99.90
9437;DHT22;4757;59.334;18.034;2023-11-18T13:34:51;-1.50;99.90
9437;DHT22;4757;59.334;18.034;2023-11-18T13:37:19;-1.50;99.90
9437;DHT22;4757;59.334;18.034;2023-11-18T13:39:56;-1.50;99.90
9437;DHT22;4757;59.334;18.034;2023-11-18T13:42:24;-1.50;99.90
9437;DHT22;4757;59.334;18.034;2023-11-18T13:45:04;-0.90;99.90
9437;DHT22;4757;59.334;18.034;2023-11-18T13:47:38;-1.50;99.90
9437;DHT22;4757;59.334;18.034;2023-11-18T13:50:10;-1.50;99.90
9437;DHT22;4757;59.334;18.034;2023-11-18T13:52:37;-1.50;99.90
9437;DHT22;4757;59.334;18.034;2023-11-18T13:55:06;-1.60;99.90
9437;DHT22;4757;59.334;18.034;2023-11-18T13:57:34;-1.80;99.90
9437;DHT22;4757;59.334;18.034;2023-11-18T14:00:01;-1.80;99.90
9437;DHT22;4757;59.334;18.034;2023-11-18T14:02:33;-1.60;99.90
9437;DHT22;4757;59.334;18.034;2023-11-18T14:05:03;-1.60;99.90
9437;DHT22;4757;59.334;18.034;2023-11-18T14:07:37;-1.60;99.90
9437;DHT22;4757;59.334;18.034;2023-11-18T14:10:06;-1.50;99.90
9437;DHT22;4757;59.334;18.034;2023-11-18T14:12:35;-1.70;99.90
9437;DHT22;4757;59.334;18.034;2023-11-18T14:15:02;-1.70;99.90
9437;DHT22;4757;59.334;18.034;2023-11-18T14:17:31;-1.60;99.90
9437;DHT22;4757;59.334;18.034;2023-11-18T14:19:58;-1.60;99.90
9437;DHT22;4757;59.334;18.034;2023-11-18T14:22:25;-1.60;99.90
9437;DHT22;4757;59.334;18.034;2023-11-18T14:24:52;-1.70;99.90
9437;DHT22;4757;59.334;18.034;2023-11-18T14:27:20;-1.70;99.90
9437;DHT22;4757;59.334;18.034;2023-11-18T14:29:48;-1.70;99.90
9437;DHT22;4757;59.334;18.034;2023-11-18T14:32:15;-1.60;99.90
9437;DHT22;4757;59.334;18.034;2023-11-18T14:34:42;-1.70;99.90
9437;DHT22;4757;59.334;18.034;2023-11-18T14:37:09;-1.50;99.90
9437;DHT22;4757;59.334;18.034;2023-11-18T14:39:38;-1.50;99.90
9437;DHT22;4757;59.334;18.034;2023-11-18T14:42:06;-1.60;99.90
9437;DHT22;4757;59.334;18.034;2023-11-18T14:44:39;-1.80;99.90
9437;DHT22;4757;59.334;18.034;2023-11-18T14:47:11;-2.00;99.90
9437;DHT22;4757;59.334;18.034;2023-11-18T14:49:39;-2.10;99.90
9437;DHT22;4757;59.334;18.034;2023-11-18T14:52:08;-2.00;99.90
9437;DHT22;4757;59.334;18.034;2023-11-18T14:54:35;-2.30;99.90
9437;DHT22;4757;59.334;18.034;2023-11-18T14:57:04;-2.10;99.90
9437;DHT22;4757;59.334;18.034;2023-11-18T14:59:32;-2.10;99.90
9437;DHT22;4757;59.334;18.034;2023-11-18T15:01:59;-2.00;99.90
9437;DHT22;4757;59.334;18.034;2023-11-18T15:04:27;-1.90;99.90
9437;DHT22;4757;59.334;18.034;2023-11-18T15:06:56;-2.00;99.90
9437;DHT22;4757;59.334;18.034;2023-11-18T15:09:25;-2.00;99.90
9437;DHT22;4757;59.334;18.034;2023-11-18T15:11:52;-2.00;99.90
9437;DHT22;4757;59.334;18.034;2023-11-18T15:14:20;-1.90;99.90
9437;DHT22;4757;59.334;18.034;2023-11-18T15:16:48;-2.00;99.90
9437;DHT22;4757;59.334;18.034;2023-11-18T15:19:16;-2.10;99.90
9437;DHT22;4757;59.334;18.034;2023-11-18T15:21:44;-2.20;99.90
9437;DHT22;4757;59.334;18.034;2023-11-18T15:24:12;-2.20;99.90
9437;DHT22;4757;59.334;18.034;2023-11-18T15:26:41;-2.50;99.90
9437;DHT22;4757;59.334;18.034;2023-11-18T15:29:08;-2.50;99.90
9437;DHT22;4757;59.334;18.034;2023-11-18T15:31:41;-2.50;99.90
9437;DHT22;4757;59.334;18.034;2023-11-18T15:34:09;-2.50;99.90
9437;DHT22;4757;59.334;18.034;2023-11-18T15:36:43;-2.40;99.90
9437;DHT22;4757;59.334;18.034;2023-11-18T15:39:10;-2.40;99.90
9437;DHT22;4757;59.334;18.034;2023-11-18T15:41:41;-2.50;99.90
9437;DHT22;4757;59.334;18.034;2023-11-18T15:44:09;-2.50;99.90
9437;DHT22;4757;59.334;18.034;2023-11-18T15:46:40;-2.50;99.90
9437;DHT22;4757;59.334;18.034;2023-11-18T15:49:07;-2.50;99.90
9437;DHT22;4757;59.334;18.034;2023-11-18T15:51:34;-2.50;99.90
9437;DHT22;4757;59.334;18.034;2023-11-18T15:54:01;-2.50;99.90
9437;DHT22;4757;59.334;18.034;2023-11-18T15:56:28;-2.40;99.90
9437;DHT22;4757;59.334;18.034;2023-11-18T15:58:55;-2.50;99.90
9437;DHT22;4757;59.334;18.034;2023-11-18T16:01:22;-2.60;99.90
9437;DHT22;4757;59.334;18.034;2023-11-18T16:03:50;-2.60;99.90
9437;DHT22;4757;59.334;18.034;2023-11-18T16:06:17;-2.50;99.90
9437;DHT22;4757;59.334;18.034;2023-11-18T16:08:46;-2.40;99.90
9437;DHT22;4757;59.334;18.034;2023-11-18T16:11:16;-2.50;99.90
9437;DHT22;4757;59.334;18.034;2023-11-18T16:13:43;-2.40;99.90
9437;DHT22;4757;59.334;18.034;2023-11-18T16:16:10;-2.40;99.90
9437;DHT22;4757;59.334;18.034;2023-11-18T16:18:39;-0.90;99.90
9437;DHT22;4757;59.334;18.034;2023-11-18T16:21:06;-2.40;99.90
9437;DHT22;4757;59.334;18.034;2023-11-18T16:23:33;-2.50;99.90
9437;DHT22;4757;59.334;18.034;2023-11-18T16:26:06;-2.50;99.90
9437;DHT22;4757;59.334;18.034;2023-11-18T16:28:35;-2.30;99.90
9437;DHT22;4757;59.334;18.034;2023-11-18T16:31:06;-2.20;99.90
9437;DHT22;4757;59.334;18.034;2023-11-18T16:33:33;-2.00;99.90
9437;DHT22;4757;59.334;18.034;2023-11-18T16:36:00;-2.30;99.90
9437;DHT22;4757;59.334;18.034;2023-11-18T16:38:27;-2.30;99.90
9437;DHT22;4757;59.334;18.034;2023-11-18T16:40:55;-2.60;99.90
9437;DHT22;4757;59.334;18.034;2023-11-18T16:43:24;-2.50;99.90
9437;DHT22;4757;59.334;18.034;2023-11-18T16:45:51;-2.50;99.90
9437;DHT22;4757;59.334;18.034;2023-11-18T16:48:19;-2.10;99.90
9437;DHT22;4757;59.334;18.034;2023-11-18T16:50:48;-2.20;99.90
9437;DHT22;4757;59.334;18.034;2023-11-18T16:53:15;-2.20;99.90
9437;DHT22;4757;59.334;18.034;2023-11-18T16:55:43;-2.20;99.90
9437;DHT22;4757;59.334;18.034;2023-11-18T16:58:12;-2.30;99.90